sensor_id;sensor_type;location;lat;lon;timestamp;pressure;altitude;pressure_sealevel;temperature
67822;BMP180;54434;50.096;20.082;2023-06-22T00:00:01;99124.60;;;20.40
67822;BMP180;54434;50.096;20.082;2023-06-22T00:03:06;99121.20;;;20.40
67822;BMP180;54434;50.096;20.082;2023-06-22T00:05:42;99116.20;;;20.40
67822;BMP180;54434;50.096;20.082;2023-06-22T00:08:19;99113.80;;;20.40
67822;BMP180;54434;50.096;20.082;2023-06-22T00:10:56;99110.60;;;20.40
67822;BMP180;54434;50.096;20.082;2023-06-22T00:13:32;99108.40;;;20.40
67822;BMP180;54434;50.096;20.082;2023-06-22T00:16:09;99106.80;;;20.40
67822;BMP180;54434;50.096;20.082;2023-06-22T00:18:46;99101.80;;;20.32
67822;BMP180;54434;50.096;20.082;2023-06-22T00:21:24;99106.60;;;20.30
67822;BMP180;54434;50.096;20.082;2023-06-22T00:24:00;99110.40;;;20.30
67822;BMP180;54434;50.096;20.082;2023-06-22T00:26:37;99102.80;;;20.30
67822;BMP180;54434;50.096;20.082;2023-06-22T00:29:16;99096.80;;;20.28
67822;BMP180;54434;50.096;20.082;2023-06-22T00:31:53;99097.20;;;20.20
67822;BMP180;54434;50.096;20.082;2023-06-22T00:34:30;99094.20;;;20.20
67822;BMP180;54434;50.096;20.082;2023-06-22T00:37:08;99091.20;;;20.20
67822;BMP180;54434;50.096;20.082;2023-06-22T00:39:46;99088.80;;;20.20
67822;BMP180;54434;50.096;20.082;2023-06-22T00:42:24;99092.40;;;20.20
67822;BMP180;54434;50.096;20.082;2023-06-22T00:45:01;99084.40;;;20.20
67822;BMP180;54434;50.096;20.082;2023-06-22T00:47:39;99078.20;;;20.20
67822;BMP180;54434;50.096;20.082;2023-06-22T00:50:22;99079.60;;;20.20
67822;BMP180;54434;50.096;20.082;2023-06-22T00:53:04;99082.60;;;20.10
67822;BMP180;54434;50.096;20.082;2023-06-22T00:55:47;99086.60;;;20.10
67822;BMP180;54434;50.096;20.082;2023-06-22T00:58:27;99083.40;;;20.10
67822;BMP180;54434;50.096;20.082;2023-06-22T01:01:03;99075.20;;;20.10
67822;BMP180;54434;50.096;20.082;2023-06-22T01:03:40;99080.20;;;20.04
67822;BMP180;54434;50.096;20.082;2023-06-22T01:06:29;99081.60;;;20.00
67822;BMP180;54434;50.096;20.082;2023-06-22T01:09:22;99081.80;;;20.00
67822;BMP180;54434;50.096;20.082;2023-06-22T01:12:05;99082.60;;;20.00
67822;BMP180;54434;50.096;20.082;2023-06-22T01:14:49;99084.60;;;20.00
67822;BMP180;54434;50.096;20.082;2023-06-22T01:17:29;99075.80;;;19.94
67822;BMP180;54434;50.096;20.082;2023-06-22T01:20:13;99070.40;;;19.90
67822;BMP180;54434;50.096;20.082;2023-06-22T01:23:09;99072.20;;;19.90
67822;BMP180;54434;50.096;20.082;2023-06-22T01:25:59;99073.00;;;19.90
67822;BMP180;54434;50.096;20.082;2023-06-22T01:28:54;99074.60;;;19.80
67822;BMP180;54434;50.096;20.082;2023-06-22T01:31:33;99078.00;;;19.80
67822;BMP180;54434;50.096;20.082;2023-06-22T01:34:12;99076.40;;;19.80
67822;BMP180;54434;50.096;20.082;2023-06-22T01:36:49;99072.00;;;19.80
67822;BMP180;54434;50.096;20.082;2023-06-22T01:39:27;99070.40;;;19.74
67822;BMP180;54434;50.096;20.082;2023-06-22T01:42:06;99079.40;;;19.70
67822;BMP180;54434;50.096;20.082;2023-06-22T01:44:43;99086.60;;;19.70
67822;BMP180;54434;50.096;20.082;2023-06-22T01:47:23;99090.00;;;19.70
67822;BMP180;54434;50.096;20.082;2023-06-22T01:50:00;99090.60;;;19.70
67822;BMP180;54434;50.096;20.082;2023-06-22T01:52:36;99091.40;;;19.70
67822;BMP180;54434;50.096;20.082;2023-06-22T01:55:13;99090.20;;;19.64
67822;BMP180;54434;50.096;20.082;2023-06-22T01:57:50;99094.60;;;19.60
67822;BMP180;54434;50.096;20.082;2023-06-22T02:00:31;99097.60;;;19.60
67822;BMP180;54434;50.096;20.082;2023-06-22T02:03:14;99102.80;;;19.60
67822;BMP180;54434;50.096;20.082;2023-06-22T02:05:56;99099.80;;;19.60
67822;BMP180;54434;50.096;20.082;2023-06-22T02:08:41;99097.00;;;19.60
67822;BMP180;54434;50.096;20.082;2023-06-22T02:11:26;99099.40;;;19.56
67822;BMP180;54434;50.096;20.082;2023-06-22T02:14:04;99105.40;;;19.50
67822;BMP180;54434;50.096;20.082;2023-06-22T02:16:42;99102.80;;;19.50
67822;BMP180;54434;50.096;20.082;2023-06-22T02:19:24;99095.00;;;19.50
67822;BMP180;54434;50.096;20.082;2023-06-22T02:21:58;99092.20;;;19.50
67822;BMP180;54434;50.096;20.082;2023-06-22T02:24:35;99094.20;;;19.40
67822;BMP180;54434;50.096;20.082;2023-06-22T02:27:12;99096.00;;;19.40
67822;BMP180;54434;50.096;20.082;2023-06-22T02:29:48;99095.80;;;19.40
67822;BMP180;54434;50.096;20.082;2023-06-22T02:32:24;99104.20;;;19.34
67822;BMP180;54434;50.096;20.082;2023-06-22T02:35:01;99112.80;;;19.30
67822;BMP180;54434;50.096;20.082;2023-06-22T02:37:41;99109.40;;;19.30
67822;BMP180;54434;50.096;20.082;2023-06-22T02:40:17;99111.40;;;19.28
67822;BMP180;54434;50.096;20.082;2023-06-22T02:42:54;99117.20;;;19.20
67822;BMP180;54434;50.096;20.082;2023-06-22T02:45:31;99117.20;;;19.20
67822;BMP180;54434;50.096;20.082;2023-06-22T02:48:08;99116.20;;;19.20
67822;BMP180;54434;50.096;20.082;2023-06-22T02:50:45;99118.80;;;19.14
67822;BMP180;54434;50.096;20.082;2023-06-22T02:53:22;99118.80;;;19.16
67822;BMP180;54434;50.096;20.082;2023-06-22T02:55:58;99118.00;;;19.16
67822;BMP180;54434;50.096;20.082;2023-06-22T02:58:37;99116.80;;;19.12
67822;BMP180;54434;50.096;20.082;2023-06-22T03:01:17;99119.00;;;19.10
67822;BMP180;54434;50.096;20.082;2023-06-22T03:04:00;99119.80;;;19.10
67822;BMP180;54434;50.096;20.082;2023-06-22T03:06:37;99112.80;;;19.12
67822;BMP180;54434;50.096;20.082;2023-06-22T03:09:16;99118.40;;;19.10
67822;BMP180;54434;50.096;20.082;2023-06-22T03:11:53;99124.40;;;19.16
67822;BMP180;54434;50.096;20.082;2023-06-22T03:14:30;99122.00;;;19.16
67822;BMP180;54434;50.096;20.082;2023-06-22T03:17:07;99126.80;;;19.20
67822;BMP180;54434;50.096;20.082;2023-06-22T03:19:44;99126.20;;;19.20
67822;BMP180;54434;50.096;20.082;2023-06-22T03:22:20;99127.40;;;19.22
67822;BMP180;54434;50.096;20.082;2023-06-22T03:24:57;99129.60;;;19.30
67822;BMP180;54434;50.096;20.082;2023-06-22T03:27:34;99130.00;;;19.40
67822;BMP180;54434;50.096;20.082;2023-06-22T03:30:13;99130.40;;;19.50
67822;BMP180;54434;50.096;20.082;2023-06-22T03:32:49;99136.40;;;19.50
67822;BMP180;54434;50.096;20.082;2023-06-22T03:35:26;99140.80;;;19.60
67822;BMP180;54434;50.096;20.082;2023-06-22T03:38:02;99147.20;;;19.70
67822;BMP180;54434;50.096;20.082;2023-06-22T03:40:39;99144.20;;;19.80
67822;BMP180;54434;50.096;20.082;2023-06-22T03:43:16;99141.60;;;19.90
67822;BMP180;54434;50.096;20.082;2023-06-22T03:45:53;99147.20;;;20.00
67822;BMP180;54434;50.096;20.082;2023-06-22T03:48:29;99150.40;;;20.10
67822;BMP180;54434;50.096;20.082;2023-06-22T03:51:06;99152.20;;;20.10
67822;BMP180;54434;50.096;20.082;2023-06-22T03:53:42;99150.40;;;20.20
67822;BMP180;54434;50.096;20.082;2023-06-22T03:56:19;99153.20;;;20.30
67822;BMP180;54434;50.096;20.082;2023-06-22T03:58:56;99149.00;;;20.32
67822;BMP180;54434;50.096;20.082;2023-06-22T04:01:32;99151.80;;;20.40
67822;BMP180;54434;50.096;20.082;2023-06-22T04:04:10;99158.00;;;20.50
67822;BMP180;54434;50.096;20.082;2023-06-22T04:06:46;99157.20;;;20.58
67822;BMP180;54434;50.096;20.082;2023-06-22T04:09:23;99164.60;;;20.60
67822;BMP180;54434;50.096;20.082;2023-06-22T04:12:00;99169.60;;;20.80
67822;BMP180;54434;50.096;20.082;2023-06-22T04:14:36;99166.80;;;21.04
67822;BMP180;54434;50.096;20.082;2023-06-22T04:17:13;99170.60;;;21.30
67822;BMP180;54434;50.096;20.082;2023-06-22T04:19:50;99168.00;;;21.76
67822;BMP180;54434;50.096;20.082;2023-06-22T04:22:26;99167.80;;;22.28
67822;BMP180;54434;50.096;20.082;2023-06-22T04:25:03;99170.80;;;22.74
67822;BMP180;54434;50.096;20.082;2023-06-22T04:27:40;99171.40;;;23.18
67822;BMP180;54434;50.096;20.082;2023-06-22T04:30:17;99172.60;;;23.60
67822;BMP180;54434;50.096;20.082;2023-06-22T04:32:54;99174.00;;;24.10
67822;BMP180;54434;50.096;20.082;2023-06-22T04:35:33;99176.80;;;24.50
67822;BMP180;54434;50.096;20.082;2023-06-22T04:38:11;99181.20;;;25.08
67822;BMP180;54434;50.096;20.082;2023-06-22T04:40:48;99187.60;;;25.76
67822;BMP180;54434;50.096;20.082;2023-06-22T04:43:24;99186.60;;;26.36
67822;BMP180;54434;50.096;20.082;2023-06-22T04:46:05;99189.60;;;26.96
67822;BMP180;54434;50.096;20.082;2023-06-22T04:48:41;99193.80;;;27.46
67822;BMP180;54434;50.096;20.082;2023-06-22T04:51:18;99197.20;;;27.80
67822;BMP180;54434;50.096;20.082;2023-06-22T04:53:56;99199.00;;;28.00
67822;BMP180;54434;50.096;20.082;2023-06-22T04:56:36;99209.60;;;28.40
67822;BMP180;54434;50.096;20.082;2023-06-22T04:59:16;99215.40;;;28.70
67822;BMP180;54434;50.096;20.082;2023-06-22T05:01:53;99215.00;;;28.90
67822;BMP180;54434;50.096;20.082;2023-06-22T05:04:31;99215.00;;;29.22
67822;BMP180;54434;50.096;20.082;2023-06-22T05:07:08;99208.20;;;29.48
67822;BMP180;54434;50.096;20.082;2023-06-22T05:09:45;99204.40;;;29.52
67822;BMP180;54434;50.096;20.082;2023-06-22T05:12:21;99200.00;;;29.74
67822;BMP180;54434;50.096;20.082;2023-06-22T05:14:57;99198.40;;;30.10
67822;BMP180;54434;50.096;20.082;2023-06-22T05:17:34;99206.00;;;30.40
67822;BMP180;54434;50.096;20.082;2023-06-22T05:20:14;99214.40;;;30.68
67822;BMP180;54434;50.096;20.082;2023-06-22T05:22:53;99213.00;;;30.98
67822;BMP180;54434;50.096;20.082;2023-06-22T05:25:29;99225.80;;;31.10
67822;BMP180;54434;50.096;20.082;2023-06-22T05:28:08;99228.80;;;31.30
67822;BMP180;54434;50.096;20.082;2023-06-22T05:30:46;99241.40;;;31.50
67822;BMP180;54434;50.096;20.082;2023-06-22T05:33:22;99233.80;;;31.64
67822;BMP180;54434;50.096;20.082;2023-06-22T05:35:59;99227.80;;;31.70
67822;BMP180;54434;50.096;20.082;2023-06-22T05:38:36;99231.40;;;31.62
67822;BMP180;54434;50.096;20.082;2023-06-22T05:41:13;99236.80;;;31.60
67822;BMP180;54434;50.096;20.082;2023-06-22T05:43:49;99238.40;;;31.70
67822;BMP180;54434;50.096;20.082;2023-06-22T05:46:26;99238.40;;;31.80
67822;BMP180;54434;50.096;20.082;2023-06-22T05:49:02;99241.20;;;31.90
67822;BMP180;54434;50.096;20.082;2023-06-22T05:51:39;99245.00;;;32.12
67822;BMP180;54434;50.096;20.082;2023-06-22T05:54:16;99241.60;;;32.30
67822;BMP180;54434;50.096;20.082;2023-06-22T05:56:53;99241.20;;;32.50
67822;BMP180;54434;50.096;20.082;2023-06-22T05:59:29;99241.00;;;32.66
67822;BMP180;54434;50.096;20.082;2023-06-22T06:02:06;99240.20;;;32.60
67822;BMP180;54434;50.096;20.082;2023-06-22T06:04:43;99252.40;;;32.70
67822;BMP180;54434;50.096;20.082;2023-06-22T06:07:19;99250.40;;;32.52
67822;BMP180;54434;50.096;20.082;2023-06-22T06:09:56;99253.00;;;32.50
67822;BMP180;54434;50.096;20.082;2023-06-22T06:12:33;99255.20;;;32.60
67822;BMP180;54434;50.096;20.082;2023-06-22T06:15:12;99263.00;;;32.70
67822;BMP180;54434;50.096;20.082;2023-06-22T06:17:53;99266.60;;;32.90
67822;BMP180;54434;50.096;20.082;2023-06-22T06:20:30;99263.80;;;33.06
67822;BMP180;54434;50.096;20.082;2023-06-22T06:23:08;99271.80;;;33.18
67822;BMP180;54434;50.096;20.082;2023-06-22T06:25:44;99273.20;;;33.20
67822;BMP180;54434;50.096;20.082;2023-06-22T06:28:21;99276.80;;;33.20
67822;BMP180;54434;50.096;20.082;2023-06-22T06:30:58;99277.80;;;33.20
67822;BMP180;54434;50.096;20.082;2023-06-22T06:33:35;99278.20;;;33.30
67822;BMP180;54434;50.096;20.082;2023-06-22T06:36:11;99272.00;;;33.30
67822;BMP180;54434;50.096;20.082;2023-06-22T06:38:48;99277.80;;;33.30
67822;BMP180;54434;50.096;20.082;2023-06-22T06:41:25;99282.00;;;33.30
67822;BMP180;54434;50.096;20.082;2023-06-22T06:44:01;99286.20;;;33.36
67822;BMP180;54434;50.096;20.082;2023-06-22T06:46:38;99286.60;;;33.30
67822;BMP180;54434;50.096;20.082;2023-06-22T06:49:14;99282.40;;;33.20
67822;BMP180;54434;50.096;20.082;2023-06-22T06:51:51;99280.80;;;33.20
67822;BMP180;54434;50.096;20.082;2023-06-22T06:54:28;99279.60;;;33.20
67822;BMP180;54434;50.096;20.082;2023-06-22T06:57:06;99276.60;;;33.40
67822;BMP180;54434;50.096;20.082;2023-06-22T06:59:50;99276.00;;;33.52
67822;BMP180;54434;50.096;20.082;2023-06-22T07:02:26;99279.20;;;33.60
67822;BMP180;54434;50.096;20.082;2023-06-22T07:05:04;99279.60;;;33.70
67822;BMP180;54434;50.096;20.082;2023-06-22T07:07:41;99282.40;;;33.80
67822;BMP180;54434;50.096;20.082;2023-06-22T07:10:18;99287.40;;;33.68
67822;BMP180;54434;50.096;20.082;2023-06-22T07:12:56;99282.20;;;33.50
67822;BMP180;54434;50.096;20.082;2023-06-22T07:15:33;99277.60;;;33.52
67822;BMP180;54434;50.096;20.082;2023-06-22T07:18:09;99277.80;;;33.60
67822;BMP180;54434;50.096;20.082;2023-06-22T07:20:46;99272.80;;;33.70
67822;BMP180;54434;50.096;20.082;2023-06-22T07:23:22;99280.00;;;33.50
67822;BMP180;54434;50.096;20.082;2023-06-22T07:25:59;99279.60;;;33.20
67822;BMP180;54434;50.096;20.082;2023-06-22T07:28:37;99270.00;;;33.10
67822;BMP180;54434;50.096;20.082;2023-06-22T07:31:15;99269.40;;;33.10
67822;BMP180;54434;50.096;20.082;2023-06-22T07:33:52;99272.40;;;32.90
67822;BMP180;54434;50.096;20.082;2023-06-22T07:36:28;99272.80;;;32.70
67822;BMP180;54434;50.096;20.082;2023-06-22T07:39:05;99270.60;;;32.44
67822;BMP180;54434;50.096;20.082;2023-06-22T07:41:43;99264.60;;;32.52
67822;BMP180;54434;50.096;20.082;2023-06-22T07:44:19;99262.60;;;32.82
67822;BMP180;54434;50.096;20.082;2023-06-22T07:46:56;99259.20;;;33.14
67822;BMP180;54434;50.096;20.082;2023-06-22T07:49:33;99262.40;;;33.14
67822;BMP180;54434;50.096;20.082;2023-06-22T07:52:11;99259.20;;;33.20
67822;BMP180;54434;50.096;20.082;2023-06-22T07:54:47;99255.80;;;33.40
67822;BMP180;54434;50.096;20.082;2023-06-22T07:57:24;99252.80;;;33.30
67822;BMP180;54434;50.096;20.082;2023-06-22T08:00:11;99256.80;;;33.40
67822;BMP180;54434;50.096;20.082;2023-06-22T08:02:52;99259.00;;;33.40
67822;BMP180;54434;50.096;20.082;2023-06-22T08:05:29;99259.60;;;33.40
67822;BMP180;54434;50.096;20.082;2023-06-22T08:08:07;99265.80;;;33.38
67822;BMP180;54434;50.096;20.082;2023-06-22T08:10:43;99271.60;;;33.50
67822;BMP180;54434;50.096;20.082;2023-06-22T08:13:20;99277.80;;;33.50
67822;BMP180;54434;50.096;20.082;2023-06-22T08:15:56;99276.80;;;33.50
67822;BMP180;54434;50.096;20.082;2023-06-22T08:18:33;99284.60;;;33.66
67822;BMP180;54434;50.096;20.082;2023-06-22T08:21:09;99289.80;;;33.64
67822;BMP180;54434;50.096;20.082;2023-06-22T08:23:46;99290.20;;;33.30
67822;BMP180;54434;50.096;20.082;2023-06-22T08:26:23;99290.60;;;33.04
67822;BMP180;54434;50.096;20.082;2023-06-22T08:29:00;99290.40;;;32.62
67822;BMP180;54434;50.096;20.082;2023-06-22T08:31:37;99291.60;;;32.24
67822;BMP180;54434;50.096;20.082;2023-06-22T08:34:13;99295.20;;;32.06
67822;BMP180;54434;50.096;20.082;2023-06-22T08:36:52;99302.00;;;31.90
67822;BMP180;54434;50.096;20.082;2023-06-22T08:39:28;99302.40;;;31.80
67822;BMP180;54434;50.096;20.082;2023-06-22T08:42:09;99297.40;;;31.50
67822;BMP180;54434;50.096;20.082;2023-06-22T08:44:45;99294.60;;;31.30
67822;BMP180;54434;50.096;20.082;2023-06-22T08:47:23;99291.20;;;31.20
67822;BMP180;54434;50.096;20.082;2023-06-22T08:49:59;99300.20;;;31.30
67822;BMP180;54434;50.096;20.082;2023-06-22T08:52:38;99297.20;;;31.10
67822;BMP180;54434;50.096;20.082;2023-06-22T08:55:17;99293.20;;;31.00
67822;BMP180;54434;50.096;20.082;2023-06-22T08:57:53;99294.20;;;30.90
67822;BMP180;54434;50.096;20.082;2023-06-22T09:00:30;99298.20;;;30.90
67822;BMP180;54434;50.096;20.082;2023-06-22T09:03:09;99301.40;;;30.82
67822;BMP180;54434;50.096;20.082;2023-06-22T09:05:46;99307.20;;;30.86
67822;BMP180;54434;50.096;20.082;2023-06-22T09:08:23;99303.20;;;30.80
67822;BMP180;54434;50.096;20.082;2023-06-22T09:11:00;99299.00;;;30.90
67822;BMP180;54434;50.096;20.082;2023-06-22T09:13:37;99297.60;;;30.90
67822;BMP180;54434;50.096;20.082;2023-06-22T09:16:14;99293.00;;;30.60
67822;BMP180;54434;50.096;20.082;2023-06-22T09:18:53;99298.20;;;30.50
67822;BMP180;54434;50.096;20.082;2023-06-22T09:21:30;99289.60;;;30.60
67822;BMP180;54434;50.096;20.082;2023-06-22T09:24:10;99302.20;;;30.64
67822;BMP180;54434;50.096;20.082;2023-06-22T09:26:47;99294.40;;;30.70
67822;BMP180;54434;50.096;20.082;2023-06-22T09:29:24;99293.00;;;30.80
67822;BMP180;54434;50.096;20.082;2023-06-22T09:32:00;99294.00;;;30.80
67822;BMP180;54434;50.096;20.082;2023-06-22T09:34:37;99291.20;;;30.90
67822;BMP180;54434;50.096;20.082;2023-06-22T09:37:14;99298.80;;;30.80
67822;BMP180;54434;50.096;20.082;2023-06-22T09:39:50;99297.60;;;30.52
67822;BMP180;54434;50.096;20.082;2023-06-22T09:42:27;99297.40;;;30.40
67822;BMP180;54434;50.096;20.082;2023-06-22T09:45:04;99301.80;;;30.40
67822;BMP180;54434;50.096;20.082;2023-06-22T09:47:41;99305.00;;;30.30
67822;BMP180;54434;50.096;20.082;2023-06-22T09:50:18;99299.00;;;30.40
67822;BMP180;54434;50.096;20.082;2023-06-22T09:52:55;99293.40;;;30.40
67822;BMP180;54434;50.096;20.082;2023-06-22T09:55:31;99290.80;;;30.50
67822;BMP180;54434;50.096;20.082;2023-06-22T09:58:08;99291.20;;;30.50
67822;BMP180;54434;50.096;20.082;2023-06-22T10:00:45;99292.20;;;30.50
67822;BMP180;54434;50.096;20.082;2023-06-22T10:03:21;99294.80;;;30.30
67822;BMP180;54434;50.096;20.082;2023-06-22T10:05:58;99294.00;;;30.12
67822;BMP180;54434;50.096;20.082;2023-06-22T10:08:35;99294.00;;;30.10
67822;BMP180;54434;50.096;20.082;2023-06-22T10:11:12;99294.40;;;30.10
67822;BMP180;54434;50.096;20.082;2023-06-22T10:13:48;99291.60;;;30.20
67822;BMP180;54434;50.096;20.082;2023-06-22T10:16:25;99297.40;;;30.30
67822;BMP180;54434;50.096;20.082;2023-06-22T10:19:06;99293.40;;;30.30
67822;BMP180;54434;50.096;20.082;2023-06-22T10:21:43;99290.60;;;30.42
67822;BMP180;54434;50.096;20.082;2023-06-22T10:24:19;99289.20;;;30.50
67822;BMP180;54434;50.096;20.082;2023-06-22T10:26:55;99283.60;;;30.50
67822;BMP180;54434;50.096;20.082;2023-06-22T10:29:32;99285.20;;;30.50
67822;BMP180;54434;50.096;20.082;2023-06-22T10:32:11;99287.40;;;30.40
67822;BMP180;54434;50.096;20.082;2023-06-22T10:34:47;99284.80;;;30.34
67822;BMP180;54434;50.096;20.082;2023-06-22T10:37:24;99289.20;;;30.26
67822;BMP180;54434;50.096;20.082;2023-06-22T10:40:00;99287.00;;;30.10
67822;BMP180;54434;50.096;20.082;2023-06-22T10:42:37;99284.20;;;30.00
67822;BMP180;54434;50.096;20.082;2023-06-22T10:45:15;99281.80;;;30.00
67822;BMP180;54434;50.096;20.082;2023-06-22T10:47:51;99276.80;;;29.90
67822;BMP180;54434;50.096;20.082;2023-06-22T10:50:28;99263.80;;;29.84
67822;BMP180;54434;50.096;20.082;2023-06-22T10:53:05;99264.60;;;29.86
67822;BMP180;54434;50.096;20.082;2023-06-22T10:55:41;99259.60;;;29.80
67822;BMP180;54434;50.096;20.082;2023-06-22T10:58:31;99260.20;;;29.70
67822;BMP180;54434;50.096;20.082;2023-06-22T11:01:07;99254.40;;;29.70
67822;BMP180;54434;50.096;20.082;2023-06-22T11:04:04;99251.00;;;29.70
67822;BMP180;54434;50.096;20.082;2023-06-22T11:06:40;99244.20;;;29.60
67822;BMP180;54434;50.096;20.082;2023-06-22T11:09:17;99248.20;;;29.50
67822;BMP180;54434;50.096;20.082;2023-06-22T11:12:03;99237.00;;;29.40
67822;BMP180;54434;50.096;20.082;2023-06-22T11:14:39;99242.80;;;29.40
67822;BMP180;54434;50.096;20.082;2023-06-22T11:17:16;99236.20;;;29.30
67822;BMP180;54434;50.096;20.082;2023-06-22T11:19:52;99236.40;;;29.30
67822;BMP180;54434;50.096;20.082;2023-06-22T11:22:29;99232.80;;;29.20
67822;BMP180;54434;50.096;20.082;2023-06-22T11:25:10;99232.00;;;29.20
67822;BMP180;54434;50.096;20.082;2023-06-22T11:27:47;99230.00;;;29.20
67822;BMP180;54434;50.096;20.082;2023-06-22T11:30:24;99233.00;;;29.20
67822;BMP180;54434;50.096;20.082;2023-06-22T11:33:01;99231.80;;;29.10
67822;BMP180;54434;50.096;20.082;2023-06-22T11:35:38;99224.20;;;29.10
67822;BMP180;54434;50.096;20.082;2023-06-22T11:38:15;99228.20;;;29.10
67822;BMP180;54434;50.096;20.082;2023-06-22T11:40:52;99224.40;;;29.10
67822;BMP180;54434;50.096;20.082;2023-06-22T11:43:28;99226.20;;;29.10
67822;BMP180;54434;50.096;20.082;2023-06-22T11:46:05;99223.60;;;29.10
67822;BMP180;54434;50.096;20.082;2023-06-22T11:48:42;99220.80;;;29.10
67822;BMP180;54434;50.096;20.082;2023-06-22T11:51:18;99209.80;;;29.10
67822;BMP180;54434;50.096;20.082;2023-06-22T11:53:55;99208.40;;;29.10
67822;BMP180;54434;50.096;20.082;2023-06-22T11:56:32;99209.40;;;29.20
67822;BMP180;54434;50.096;20.082;2023-06-22T11:59:08;99213.60;;;29.20
67822;BMP180;54434;50.096;20.082;2023-06-22T12:01:45;99207.40;;;29.10
67822;BMP180;54434;50.096;20.082;2023-06-22T12:04:22;99203.20;;;29.10
67822;BMP180;54434;50.096;20.082;2023-06-22T12:06:58;99203.80;;;29.10
67822;BMP180;54434;50.096;20.082;2023-06-22T12:09:35;99198.80;;;29.16
67822;BMP180;54434;50.096;20.082;2023-06-22T12:12:13;99196.80;;;29.20
67822;BMP180;54434;50.096;20.082;2023-06-22T12:14:49;99195.60;;;29.20
67822;BMP180;54434;50.096;20.082;2023-06-22T12:17:26;99197.20;;;29.20
67822;BMP180;54434;50.096;20.082;2023-06-22T12:20:04;99199.20;;;29.20
67822;BMP180;54434;50.096;20.082;2023-06-22T12:22:43;99200.60;;;29.20
67822;BMP180;54434;50.096;20.082;2023-06-22T12:25:21;99205.20;;;29.20
67822;BMP180;54434;50.096;20.082;2023-06-22T12:27:58;99199.20;;;29.10
67822;BMP180;54434;50.096;20.082;2023-06-22T12:30:35;99200.20;;;29.20
67822;BMP180;54434;50.096;20.082;2023-06-22T12:33:12;99200.00;;;29.12
67822;BMP180;54434;50.096;20.082;2023-06-22T12:35:48;99206.60;;;29.10
67822;BMP180;54434;50.096;20.082;2023-06-22T12:38:25;99200.00;;;29.00
67822;BMP180;54434;50.096;20.082;2023-06-22T12:41:01;99194.40;;;29.00
67822;BMP180;54434;50.096;20.082;2023-06-22T12:43:37;99193.20;;;29.00
67822;BMP180;54434;50.096;20.082;2023-06-22T12:46:14;99184.60;;;29.00
67822;BMP180;54434;50.096;20.082;2023-06-22T12:48:51;99186.00;;;28.92
67822;BMP180;54434;50.096;20.082;2023-06-22T12:51:27;99181.00;;;28.90
67822;BMP180;54434;50.096;20.082;2023-06-22T12:54:04;99175.20;;;29.00
67822;BMP180;54434;50.096;20.082;2023-06-22T12:56:41;99180.60;;;29.00
67822;BMP180;54434;50.096;20.082;2023-06-22T12:59:19;99182.80;;;29.10
67822;BMP180;54434;50.096;20.082;2023-06-22T13:01:55;99173.20;;;29.00
67822;BMP180;54434;50.096;20.082;2023-06-22T13:04:32;99161.20;;;29.00
67822;BMP180;54434;50.096;20.082;2023-06-22T13:07:09;99160.60;;;28.90
67822;BMP180;54434;50.096;20.082;2023-06-22T13:09:49;99158.60;;;28.90
67822;BMP180;54434;50.096;20.082;2023-06-22T13:12:27;99150.60;;;28.92
67822;BMP180;54434;50.096;20.082;2023-06-22T13:15:05;99145.20;;;28.92
67822;BMP180;54434;50.096;20.082;2023-06-22T13:17:42;99151.40;;;28.90
67822;BMP180;54434;50.096;20.082;2023-06-22T13:20:19;99149.40;;;28.90
67822;BMP180;54434;50.096;20.082;2023-06-22T13:22:56;99146.40;;;28.90
67822;BMP180;54434;50.096;20.082;2023-06-22T13:25:32;99150.20;;;28.90
67822;BMP180;54434;50.096;20.082;2023-06-22T13:28:09;99148.20;;;28.90
67822;BMP180;54434;50.096;20.082;2023-06-22T13:31:02;99146.60;;;28.98
67822;BMP180;54434;50.096;20.082;2023-06-22T13:33:39;99143.60;;;28.98
67822;BMP180;54434;50.096;20.082;2023-06-22T13:36:16;99140.40;;;29.00
67822;BMP180;54434;50.096;20.082;2023-06-22T13:38:53;99146.80;;;29.00
67822;BMP180;54434;50.096;20.082;2023-06-22T13:41:29;99141.60;;;29.00
67822;BMP180;54434;50.096;20.082;2023-06-22T13:44:06;99142.80;;;29.00
67822;BMP180;54434;50.096;20.082;2023-06-22T13:46:43;99139.40;;;29.00
67822;BMP180;54434;50.096;20.082;2023-06-22T13:49:19;99144.20;;;29.06
67822;BMP180;54434;50.096;20.082;2023-06-22T13:51:56;99141.60;;;29.00
67822;BMP180;54434;50.096;20.082;2023-06-22T13:54:33;99135.40;;;29.00
67822;BMP180;54434;50.096;20.082;2023-06-22T13:57:11;99137.60;;;28.90
67822;BMP180;54434;50.096;20.082;2023-06-22T13:59:47;99133.40;;;28.90
67822;BMP180;54434;50.096;20.082;2023-06-22T14:02:25;99134.40;;;28.90
67822;BMP180;54434;50.096;20.082;2023-06-22T14:05:03;99133.80;;;28.90
67822;BMP180;54434;50.096;20.082;2023-06-22T14:07:39;99133.20;;;28.80
67822;BMP180;54434;50.096;20.082;2023-06-22T14:10:16;99130.40;;;28.80
67822;BMP180;54434;50.096;20.082;2023-06-22T14:12:53;99133.00;;;28.80
67822;BMP180;54434;50.096;20.082;2023-06-22T14:15:30;99132.80;;;28.80
67822;BMP180;54434;50.096;20.082;2023-06-22T14:18:07;99133.80;;;28.80
67822;BMP180;54434;50.096;20.082;2023-06-22T14:20:43;99132.60;;;28.80
67822;BMP180;54434;50.096;20.082;2023-06-22T14:23:20;99131.80;;;28.80
67822;BMP180;54434;50.096;20.082;2023-06-22T14:25:56;99130.80;;;28.80
67822;BMP180;54434;50.096;20.082;2023-06-22T14:28:33;99134.80;;;28.70
67822;BMP180;54434;50.096;20.082;2023-06-22T14:31:10;99130.60;;;28.70
67822;BMP180;54434;50.096;20.082;2023-06-22T14:33:50;99127.80;;;28.70
67822;BMP180;54434;50.096;20.082;2023-06-22T14:36:27;99128.60;;;28.70
67822;BMP180;54434;50.096;20.082;2023-06-22T14:39:04;99129.00;;;28.70
67822;BMP180;54434;50.096;20.082;2023-06-22T14:41:40;99130.20;;;28.70
67822;BMP180;54434;50.096;20.082;2023-06-22T14:44:17;99120.80;;;28.60
67822;BMP180;54434;50.096;20.082;2023-06-22T14:46:53;99121.80;;;28.60
67822;BMP180;54434;50.096;20.082;2023-06-22T14:49:29;99122.60;;;28.52
67822;BMP180;54434;50.096;20.082;2023-06-22T14:52:07;99120.20;;;28.50
67822;BMP180;54434;50.096;20.082;2023-06-22T14:54:43;99118.20;;;28.60